Time;durP1;ratioP1;P1;durP2;ratioP2;P2;SDS_P1;SDS_P2;PMS_P1;PMS_P2;Temp;Humidity;BMP_temperature;BMP_pressure;BME280_temperature;BME280_humidity;BME280_pressure;Samples;Min_cycle;Max_cycle;Signal;HPM_P1;HPM_P2
2022/12/08 00:01:33;;;;;;;11.00;5.53;;;1.50;99.90;;;4.96;53.75;97187.50;5001242;28;20052;-52
2022/12/08 00:04:03;;;;;;;10.67;6.03;;;1.50;99.90;;;4.96;54.19;97200.69;5000697;28;20060;-56
2022/12/08 00:09:39;;;;;;;11.17;5.73;;;1.50;99.30;;;4.88;53.61;97194.28;5004199;28;20056;-57
2022/12/08 00:12:16;;;;;;;8.47;4.73;;;1.50;99.20;;;4.89;54.06;97190.69;5004447;28;20049;-56
2022/12/08 00:14:46;;;;;;;8.23;5.10;;;1.40;99.00;;;4.85;54.12;97186.66;5005069;28;20052;-54
2022/12/08 00:17:16;;;;;;;9.47;5.47;;;1.40;99.10;;;4.82;53.71;97183.47;5005145;28;20068;-57
2022/12/08 00:19:44;;;;;;;9.77;6.10;;;1.30;99.80;;;4.81;54.18;97180.00;5004897;28;20034;-57
2022/12/08 00:22:13;;;;;;;11.20;6.73;;;1.30;99.90;;;4.81;53.82;97179.16;5005094;28;20229;-56
2022/12/08 00:24:44;;;;;;;10.97;6.70;;;1.30;99.90;;;4.81;53.42;97179.16;5004910;28;20248;-57
2022/12/08 00:27:15;;;;;;;10.17;5.73;;;1.30;99.90;;;4.83;53.61;97183.34;5004959;28;20048;-56
2022/12/08 00:29:44;;;;;;;9.90;5.77;;;1.30;99.90;;;4.83;53.91;97180.69;5003254;28;20068;-53
2022/12/08 00:32:12;;;;;;;9.53;5.50;;;1.30;99.40;;;4.82;53.53;97183.47;5003860;28;20072;-56
2022/12/08 00:34:40;;;;;;;7.20;5.43;;;1.30;99.60;;;4.78;53.86;97177.63;5003465;28;20046;-57
2022/12/08 00:37:07;;;;;;;8.43;4.93;;;1.30;99.60;;;4.76;53.67;97173.47;5004559;28;20109;-56
2022/12/08 00:39:35;;;;;;;8.67;5.10;;;1.30;99.90;;;4.74;53.77;97170.97;5003290;28;20050;-56
2022/12/08 00:42:12;;;;;;;9.83;5.97;;;1.20;99.50;;;4.72;54.08;97167.63;5004700;28;20042;-56
2022/12/08 00:44:42;;;;;;;9.40;5.73;;;1.20;99.90;;;4.68;54.10;97166.25;5003527;28;20042;-56
2022/12/08 00:47:11;;;;;;;11.23;5.43;;;1.10;99.90;;;4.61;54.04;97168.56;5004539;28;20344;-56
2022/12/08 00:49:39;;;;;;;11.83;5.60;;;1.10;99.90;;;4.67;54.42;97175.97;5002437;28;20057;-52
2022/12/08 00:52:07;;;;;;;8.93;5.33;;;1.10;99.90;;;4.64;53.88;97170.13;5004538;28;20362;-57
2022/12/08 00:54:35;;;;;;;10.30;5.40;;;1.00;99.90;;;4.66;53.66;97176.91;5004419;28;20046;-55
2022/12/08 00:57:03;;;;;;;10.90;6.37;;;1.10;99.90;;;4.67;54.29;97164.56;5004436;28;20052;-55
2022/12/08 00:59:31;;;;;;;12.60;5.43;;;1.10;99.90;;;4.68;53.61;97161.78;5004659;28;20076;-57
2022/12/08 01:01:59;;;;;;;9.47;5.67;;;1.10;99.90;;;4.65;54.14;97156.81;5004166;28;20060;-54
2022/12/08 01:04:26;;;;;;;9.47;5.37;;;1.00;99.90;;;4.61;53.69;97158.00;5004113;28;20261;-55
2022/12/08 01:06:56;;;;;;;8.70;5.27;;;1.00;99.90;;;4.58;53.80;97160.13;5003837;28;20050;-54
2022/12/08 01:09:24;;;;;;;9.77;5.53;;;1.00;99.90;;;4.55;53.71;97161.19;5003733;28;20046;-55
2022/12/08 01:11:52;;;;;;;9.27;6.47;;;1.00;99.90;;;4.55;53.74;97161.19;5003867;28;20046;-54
2022/12/08 01:14:20;;;;;;;9.20;5.33;;;1.00;99.90;;;4.55;54.23;97153.28;5004130;28;20046;-54
2022/12/08 01:16:48;;;;;;;11.87;5.80;;;1.00;99.90;;;4.55;54.01;97150.66;4998631;28;20054;-55
2022/12/08 01:19:16;;;;;;;8.37;5.67;;;1.00;99.90;;;4.52;54.09;97151.78;5003476;28;20034;-53
2022/12/08 01:21:45;;;;;;;10.17;7.63;;;1.00;99.90;;;4.51;53.88;97151.91;5002446;28;20042;-53
2022/12/08 01:24:19;;;;;;;9.67;4.80;;;0.90;99.90;;;4.51;54.02;97150.09;5002920;28;20049;-52
2022/12/08 01:26:49;;;;;;;10.13;5.97;;;0.90;99.90;;;4.49;54.30;97149.41;5002811;28;20042;-54
2022/12/08 01:29:17;;;;;;;10.00;4.70;;;0.80;99.90;;;4.45;54.34;97150.63;5003650;28;20248;-52
2022/12/08 01:31:45;;;;;;;8.90;5.43;;;0.90;99.90;;;4.46;54.56;97148.81;5003367;28;20152;-53
2022/12/08 01:34:13;;;;;;;10.27;5.70;;;0.90;99.90;;;4.47;53.92;97147.88;5002680;28;20042;-52
2022/12/08 01:36:43;;;;;;;10.00;5.03;;;0.90;99.90;;;4.49;54.56;97151.19;5003482;28;20046;-53
2022/12/08 01:39:17;;;;;;;7.77;5.00;;;1.00;99.90;;;4.52;54.60;97154.41;5002694;28;20313;-54
2022/12/08 01:41:46;;;;;;;8.00;4.80;;;1.00;99.90;;;4.56;54.59;97148.88;5003102;28;20050;-55
2022/12/08 01:44:14;;;;;;;8.27;4.23;;;1.10;99.90;;;4.53;54.74;97145.50;5002621;28;20038;-53
2022/12/08 01:46:44;;;;;;;10.43;5.13;;;1.10;99.90;;;4.54;54.52;97143.72;5003378;28;20038;-51
2022/12/08 01:49:18;;;;;;;10.57;5.43;;;1.10;99.90;;;4.52;54.93;97133.31;5001484;28;20255;-52
2022/12/08 01:52:09;;;;;;;7.50;4.88;;;1.10;99.90;;;4.48;54.67;97133.75;5003044;28;20050;-54
2022/12/08 01:54:48;;;;;;;9.00;4.40;;;1.10;99.90;;;4.49;54.62;97138.03;5004170;28;20054;-52
2022/12/08 01:57:26;;;;;;;7.77;4.57;;;1.10;99.90;;;4.52;54.90;97130.69;5002250;28;20060;-55
2022/12/08 02:00:04;;;;;;;8.97;5.20;;;1.10;99.90;;;4.54;54.87;97131.38;4994043;28;20048;-50
2022/12/08 02:03:01;;;;;;;7.90;5.23;;;1.10;99.90;;;4.53;54.88;97126.22;5002395;28;20382;-52
2022/12/08 02:05:38;;;;;;;9.83;5.30;;;1.20;99.90;;;4.56;54.75;97123.34;5002949;28;20050;-53
2022/12/08 02:08:11;;;;;;;8.13;4.77;;;1.20;99.90;;;4.57;54.72;97117.06;5002017;28;20042;-51
2022/12/08 02:10:41;;;;;;;8.10;5.20;;;1.20;99.90;;;4.58;55.02;97112.66;5001537;28;20245;-51
2022/12/08 02:13:15;;;;;;;7.03;4.60;;;1.30;99.90;;;4.58;54.91;97118.75;5002995;28;20267;-54
2022/12/08 02:16:08;;;;;;;;;;;1.30;99.90;;;4.52;54.91;97114.88;5002289;28;20057;-53
2022/12/08 02:18:54;;;;;;;10.67;4.70;;;1.20;99.90;;;4.56;55.04;97111.97;5002412;28;19918;-54
2022/12/08 02:22:31;;;;;;;9.10;4.90;;;1.10;99.90;;;4.49;54.56;97111.66;5002864;28;20062;-53
2022/12/08 02:25:28;;;;;;;10.70;5.73;;;1.10;99.90;;;4.52;54.74;97108.75;4995424;28;20049;-53
2022/12/08 02:28:20;;;;;;;7.57;4.07;;;1.10;99.90;;;4.40;54.89;97105.41;4991934;28;20058;-53
2022/12/08 02:31:50;;;;;;;9.93;4.43;;;1.00;99.90;;;4.33;54.76;97104.28;5002452;28;20050;-54
2022/12/08 02:34:39;;;;;;;7.87;4.53;;;1.00;99.90;;;4.39;54.50;97097.63;4992483;28;20358;-54
2022/12/08 02:37:24;;;;;;;7.30;4.50;;;1.00;99.90;;;4.36;54.23;97093.44;4996899;28;20057;-52
2022/12/08 02:40:36;;;;;;;8.73;4.83;;;0.90;99.90;;;4.21;54.70;97098.28;5002082;28;20240;-51
2022/12/08 02:43:33;;;;;;;7.87;4.50;;;0.80;99.90;;;4.08;54.91;97100.34;4995981;28;20038;-55
2022/12/08 02:46:18;;;;;;;10.17;5.90;;;0.70;99.90;;;4.07;54.97;97102.13;4995336;28;20356;-54
2022/12/08 02:48:48;;;;;;;9.73;4.60;;;0.70;99.90;;;4.18;54.73;97098.56;5002408;28;20042;-53
2022/12/08 02:51:17;;;;;;;10.30;5.30;;;0.70;99.90;;;4.18;54.74;97095.09;5001668;28;20240;-51
2022/12/08 02:53:46;;;;;;;8.33;4.63;;;0.70;99.90;;;4.21;54.37;97100.94;5002388;28;20080;-50
2022/12/08 02:57:07;;;;;;;9.70;4.63;;;0.70;99.90;;;4.16;54.93;97084.69;5001422;28;20048;-51
2022/12/08 03:00:08;;;;;;;8.83;4.80;;;0.70;99.90;;;4.16;54.78;97094.41;4977801;28;20053;-51
2022/12/08 03:03:10;;;;;;;6.40;4.37;;;0.70;99.90;;;4.13;54.66;97082.34;5001373;28;20050;-51
2022/12/08 03:06:22;;;;;;;8.93;4.80;;;0.70;99.90;;;4.07;54.36;97075.81;5002216;28;20052;-51
2022/12/08 03:08:56;;;;;;;8.23;3.90;;;0.70;99.90;;;4.13;54.45;97077.06;5001388;28;20042;-51
2022/12/08 03:11:37;;;;;;;7.22;4.53;;;0.60;99.90;;;4.09;54.44;97070.38;5001889;28;20068;-53
2022/12/08 03:14:07;;;;;;;8.73;3.93;;;0.60;99.90;;;4.09;54.81;97060.69;5002076;28;20042;-51
2022/12/08 03:16:39;;;;;;;7.97;4.13;;;0.60;99.90;;;4.07;54.27;97069.69;4984820;28;20054;-55
2022/12/08 03:19:22;;;;;;;8.27;4.70;;;0.60;99.90;;;4.07;54.61;97067.03;5000359;28;20042;-54
2022/12/08 03:22:03;;;;;;;8.37;4.43;;;0.60;99.90;;;4.04;54.56;97062.88;5000933;28;20048;-50
2022/12/08 03:24:42;;;;;;;8.20;5.13;;;0.60;99.90;;;4.06;54.38;97062.75;5001227;28;20341;-50
2022/12/08 03:27:18;;;;;;;7.37;4.20;;;0.60;99.90;;;4.11;54.49;97061.38;5010387;28;20049;-53
2022/12/08 03:29:49;;;;;;;8.57;4.37;;;0.60;99.90;;;4.11;54.88;97057.91;5001721;28;20057;-52
2022/12/08 03:32:37;;;;;;;5.37;3.73;;;0.60;99.90;;;4.10;54.72;97059.72;5001159;28;20042;-55
2022/12/08 03:35:12;;;;;;;7.63;4.23;;;0.70;99.90;;;4.14;54.36;97055.81;5010153;28;20069;-54
2022/12/08 03:37:41;;;;;;;7.10;3.83;;;0.70;99.90;;;4.17;54.63;97051.25;5000899;28;20060;-52
2022/12/08 03:40:14;;;;;;;6.53;3.90;;;0.70;99.90;;;4.19;54.75;97046.69;4999986;28;20046;-52
2022/12/08 03:42:42;;;;;;;6.87;3.87;;;0.70;99.90;;;4.20;54.85;97045.72;5004702;28;20064;-53
2022/12/08 03:45:10;;;;;;;13.37;5.97;;;0.70;99.90;;;4.20;54.32;97037.81;5005770;28;20042;-52
2022/12/08 03:47:38;;;;;;;11.77;5.70;;;0.70;99.90;;;4.19;54.33;97037.00;5004581;28;20262;-51
2022/12/08 03:50:06;;;;;;;13.90;7.33;;;0.70;99.90;;;4.18;54.77;97034.50;5020722;28;20122;-55
2022/12/08 03:52:34;;;;;;;9.43;5.20;;;0.70;99.90;;;4.18;54.67;97037.94;5004322;28;20064;-52
2022/12/08 03:55:02;;;;;;;9.73;4.00;;;0.70;99.90;;;4.21;54.13;97039.50;5004162;28;20048;-55
2022/12/08 03:57:30;;;;;;;11.37;6.63;;;0.70;99.90;;;4.19;54.48;97031.72;5005501;28;20056;-52
2022/12/08 03:59:58;;;;;;;11.00;6.10;;;0.70;99.90;;;4.18;54.70;97030.03;5020019;28;20244;-52
2022/12/08 04:02:26;;;;;;;22.50;9.80;;;0.70;99.90;;;4.16;54.38;97028.53;5005246;28;20056;-52
2022/12/08 04:04:53;;;;;;;38.83;15.40;;;0.60;99.90;;;4.12;54.40;97026.16;5005118;28;20047;-52
2022/12/08 04:07:21;;;;;;;23.30;9.93;;;0.60;99.90;;;4.10;54.24;97022.00;5005665;28;20229;-52
2022/12/08 04:09:49;;;;;;;12.83;6.10;;;0.60;99.90;;;4.09;54.69;97015.91;5004872;28;20050;-53
2022/12/08 04:12:17;;;;;;;6.83;3.80;;;0.60;99.90;;;4.08;54.41;97010.75;5004490;28;20072;-50
2022/12/08 04:14:45;;;;;;;6.13;4.23;;;0.60;99.90;;;4.13;54.30;97019.94;5005118;28;20054;-54
2022/12/08 04:17:12;;;;;;;8.20;4.30;;;0.60;99.90;;;4.14;54.56;97026.84;5003482;28;20042;-52
2022/12/08 04:19:40;;;;;;;7.23;4.50;;;0.70;99.90;;;4.16;54.43;97021.44;5003687;28;20244;-54
2022/12/08 04:22:08;;;;;;;9.30;4.60;;;0.70;99.90;;;4.17;54.31;97015.22;5005188;28;20044;-53
2022/12/08 04:24:35;;;;;;;8.53;3.90;;;0.70;99.90;;;4.18;54.68;97013.41;5004998;28;20046;-55
2022/12/08 04:27:03;;;;;;;9.43;4.50;;;0.70;99.90;;;4.20;54.24;97019.38;5005251;28;20042;-50
2022/12/08 04:29:31;;;;;;;9.87;4.07;;;0.70;99.90;;;4.19;54.64;97009.78;5004831;28;20048;-54
2022/12/08 04:31:59;;;;;;;7.70;4.30;;;0.70;99.90;;;4.17;54.04;97017.84;5003563;28;20042;-54
2022/12/08 04:34:26;;;;;;;8.27;4.50;;;0.70;99.90;;;4.18;54.26;97010.78;5004900;28;20046;-52
2022/12/08 04:36:54;;;;;;;9.70;5.00;;;0.70;99.90;;;4.16;54.60;97010.91;5004604;28;20046;-55
2022/12/08 04:39:22;;;;;;;6.43;3.67;;;0.70;99.40;;;4.14;54.22;97011.03;5004693;28;20256;-55
2022/12/08 04:41:50;;;;;;;7.40;4.23;;;0.60;99.90;;;4.16;54.33;97010.09;5003465;28;20368;-54
2022/12/08 04:44:18;;;;;;;7.57;4.43;;;0.60;99.90;;;4.15;54.33;97006.63;5004619;28;20040;-55
2022/12/08 04:46:45;;;;;;;6.10;4.27;;;0.70;99.30;;;4.14;54.48;97002.31;5003492;28;20043;-50
2022/12/08 04:49:13;;;;;;;11.50;5.60;;;0.70;99.70;;;4.12;54.11;96999.81;5004115;28;20042;-53
2022/12/08 04:51:41;;;;;;;7.27;4.40;;;0.70;99.90;;;4.14;54.58;96992.59;5004060;28;20347;-52
2022/12/08 04:54:09;;;;;;;8.87;4.30;;;0.70;99.90;;;4.13;54.76;96988.31;5003541;28;20042;-55
2022/12/08 04:56:37;;;;;;;6.23;3.70;;;0.80;99.90;;;4.16;54.42;96994.28;5003552;28;20054;-54
2022/12/08 04:59:05;;;;;;;5.93;3.43;;;0.80;99.90;;;4.16;54.74;96994.28;5004335;28;20046;-51
2022/12/08 05:01:33;;;;;;;6.73;3.60;;;0.80;99.50;;;4.20;54.47;96985.94;5003995;28;20045;-50
2022/12/08 05:04:01;;;;;;;7.90;3.93;;;0.80;98.80;;;4.25;54.24;96986.38;5003309;28;20064;-54
2022/12/08 05:06:29;;;;;;;9.77;4.60;;;0.90;98.90;;;4.24;54.39;96983.88;5003153;28;20046;-53
2022/12/08 05:08:57;;;;;;;8.50;4.40;;;0.80;98.30;;;4.24;54.09;96984.69;5004386;28;20052;-54
2022/12/08 05:11:24;;;;;;;9.60;4.57;;;0.80;99.80;;;4.23;54.46;96984.88;5003717;28;20046;-53
2022/12/08 05:13:52;;;;;;;11.10;4.83;;;0.80;98.40;;;4.25;54.23;96985.56;5002846;28;20320;-55
2022/12/08 05:16:20;;;;;;;8.87;4.87;;;0.80;98.10;;;4.30;54.06;96978.06;5003388;28;20046;-52
2022/12/08 05:18:48;;;;;;;7.37;4.23;;;0.90;98.80;;;4.31;54.12;96983.19;5003955;28;20046;-54
2022/12/08 05:21:15;;;;;;;7.13;4.67;;;0.90;98.70;;;4.36;54.13;96987.22;5002843;28;20060;-49
2022/12/08 05:23:43;;;;;;;6.53;4.33;;;1.00;98.20;;;4.32;53.98;96981.38;5003764;28;20244;-50
2022/12/08 05:26:11;;;;;;;9.20;4.27;;;1.00;97.70;;;4.33;53.93;96980.41;5018982;28;20399;-52
2022/12/08 05:28:39;;;;;;;8.87;4.57;;;0.90;97.10;;;4.34;54.14;96984.72;5003951;28;20042;-55
2022/12/08 05:31:14;;;;;;;7.50;3.83;;;1.00;97.60;;;4.36;53.90;96984.56;5003378;28;20053;-52
2022/12/08 05:33:44;;;;;;;9.20;5.23;;;0.90;96.90;;;4.36;54.00;96981.94;5002608;28;20255;-53
2022/12/08 05:36:14;;;;;;;7.27;4.53;;;0.90;97.20;;;4.39;53.88;96984.31;5002678;28;20042;-51
2022/12/08 05:38:42;;;;;;;7.43;4.70;;;0.90;96.30;;;4.38;54.13;96980.00;5003390;28;20052;-53
2022/12/08 05:41:18;;;;;;;7.47;4.43;;;0.80;96.70;;;4.37;53.70;96994.97;5003145;28;20253;-53
2022/12/08 05:43:47;;;;;;;13.60;6.43;;;0.80;97.10;;;4.34;53.56;96987.34;5017883;28;20050;-53
2022/12/08 05:46:16;;;;;;;9.17;5.07;;;0.80;97.30;;;4.21;53.97;96987.63;5002474;28;20069;-54
2022/12/08 05:48:44;;;;;;;8.80;4.87;;;0.70;95.70;;;4.30;54.02;96983.31;5002279;28;20049;-55
2022/12/08 05:51:20;;;;;;;8.37;4.70;;;0.70;98.00;;;4.29;53.75;96979.03;5003035;28;20244;-54
2022/12/08 05:53:49;;;;;;;6.60;4.10;;;0.70;97.70;;;4.31;53.73;96980.56;5002534;28;20347;-52
2022/12/08 05:56:18;;;;;;;9.10;4.20;;;0.80;98.10;;;4.31;53.85;96982.38;5002323;28;20053;-52
2022/12/08 05:58:48;;;;;;;9.60;4.80;;;0.80;97.50;;;4.32;53.28;96981.38;5002171;28;20069;-55
2022/12/08 06:01:30;;;;;;;15.13;5.70;;;0.80;97.10;;;4.33;53.78;96978.63;5001595;28;20072;-53
2022/12/08 06:04:00;;;;;;;7.90;4.30;;;0.80;97.10;;;4.37;54.01;96976.53;5003112;28;20356;-54
2022/12/08 06:06:29;;;;;;;8.30;5.20;;;0.80;97.90;;;4.28;53.57;96983.44;5002007;28;20244;-54
2022/12/08 06:08:57;;;;;;;9.93;5.77;;;0.70;96.30;;;4.28;53.85;96983.44;5002953;28;20340;-53
2022/12/08 06:11:28;;;;;;;9.30;5.20;;;0.70;98.10;;;4.30;53.37;96983.31;5002673;28;20394;-51
2022/12/08 06:13:57;;;;;;;7.27;4.37;;;0.70;97.60;;;4.26;53.69;96984.56;5002930;28;20050;-53
2022/12/08 06:16:26;;;;;;;8.17;4.50;;;0.70;96.70;;;4.24;53.34;96978.59;5003034;28;20061;-50
2022/12/08 06:18:55;;;;;;;6.47;4.27;;;0.60;97.90;;;4.25;53.71;96980.28;5002866;28;20050;-54
2022/12/08 06:21:24;;;;;;;6.83;3.83;;;0.60;98.00;;;4.25;53.34;96985.56;5002157;28;20341;-52
2022/12/08 06:23:53;;;;;;;9.33;5.20;;;0.60;96.90;;;4.24;53.51;96981.25;5001727;28;20050;-51
2022/12/08 06:26:21;;;;;;;10.23;5.13;;;0.60;97.90;;;4.25;53.49;96988.19;5002977;28;20042;-52
2022/12/08 06:28:50;;;;;;;9.93;4.20;;;0.70;97.80;;;4.26;52.96;96982.75;5002490;28;20046;-54
2022/12/08 06:31:21;;;;;;;8.70;4.83;;;0.70;97.40;;;4.24;53.18;96979.44;5002091;28;20054;-55
2022/12/08 06:33:50;;;;;;;8.97;4.80;;;0.70;97.10;;;4.22;53.16;96978.75;5001098;28;20050;-55
2022/12/08 06:36:21;;;;;;;9.70;4.83;;;0.60;96.70;;;4.26;53.24;96984.56;5017929;28;20046;-53
2022/12/08 06:38:49;;;;;;;8.30;4.60;;;0.60;97.10;;;4.23;53.46;96990.13;5000943;28;20364;-54
2022/12/08 06:41:17;;;;;;;11.07;4.73;;;0.60;97.20;;;4.24;53.45;96983.88;5002160;28;20042;-53
2022/12/08 06:43:45;;;;;;;5.60;3.73;;;0.70;97.00;;;4.23;53.12;96980.41;5002472;28;20057;-54
2022/12/08 06:46:17;;;;;;;8.00;4.70;;;0.60;96.70;;;4.20;53.03;96993.84;5002489;28;20048;-55
2022/12/08 06:48:45;;;;;;;8.97;4.77;;;0.60;96.20;;;4.21;53.46;96985.00;5001473;28;20046;-53
2022/12/08 06:51:17;;;;;;;10.27;4.83;;;0.60;96.80;;;4.22;53.65;96984.00;5000997;28;20042;-54
2022/12/08 06:53:45;;;;;;;8.10;4.30;;;0.60;96.30;;;4.24;53.14;96989.16;5001776;28;20061;-55
2022/12/08 06:56:14;;;;;;;10.73;5.83;;;0.60;97.00;;;4.25;53.42;96989.03;5002749;28;20053;-53
2022/12/08 06:58:42;;;;;;;8.10;5.13;;;0.70;97.00;;;4.30;53.30;96988.59;5001244;28;20042;-52
2022/12/08 07:01:19;;;;;;;8.00;4.90;;;0.70;96.70;;;4.30;53.05;96988.59;5001044;28;20039;-54
2022/12/08 07:03:47;;;;;;;8.00;5.07;;;0.70;96.40;;;4.30;52.90;96985.97;5002235;28;20076;-55
2022/12/08 07:06:20;;;;;;;6.87;4.10;;;0.60;96.30;;;4.31;53.53;96982.38;5002305;28;20038;-51
2022/12/08 07:08:49;;;;;;;7.28;4.75;;;0.70;95.70;;;4.31;53.40;96987.63;5000870;28;20049;-52
2022/12/08 07:11:17;;;;;;;9.60;5.43;;;0.70;96.20;;;4.30;52.95;96981.53;5001960;28;20048;-53
2022/12/08 07:13:49;;;;;;;7.60;4.97;;;0.70;96.30;;;4.33;53.35;96983.06;5002224;28;20053;-51
2022/12/08 07:16:17;;;;;;;7.90;4.33;;;0.70;96.50;;;4.36;53.26;96980.13;5003270;28;20367;-53
2022/12/08 07:18:46;;;;;;;9.37;5.13;;;0.70;96.30;;;4.37;52.86;96987.06;5001508;28;20046;-54
2022/12/08 07:21:14;;;;;;;7.67;4.43;;;0.70;96.00;;;4.37;53.10;96986.25;5005177;28;20094;-55
2022/12/08 07:23:46;;;;;;;5.80;4.13;;;0.70;95.60;;;4.34;53.12;96990.84;5006117;28;20042;-53
2022/12/08 07:26:20;;;;;;;4.90;3.40;;;0.70;95.60;;;4.32;52.87;96994.56;4998512;28;20049;-54
2022/12/08 07:28:48;;;;;;;9.13;5.80;;;0.70;94.30;;;4.31;52.86;96998.19;5004932;28;20042;-55
2022/12/08 07:31:20;;;;;;;7.17;4.20;;;0.60;96.00;;;4.33;53.07;96990.97;5006161;28;20057;-53
2022/12/08 07:33:49;;;;;;;6.53;3.90;;;0.70;95.80;;;4.36;53.25;96992.47;5005140;28;20068;-55
2022/12/08 07:36:16;;;;;;;7.37;4.13;;;0.70;95.70;;;4.40;52.58;96996.50;5005844;28;20349;-54
2022/12/08 07:38:44;;;;;;;7.20;3.77;;;0.80;95.60;;;4.43;53.38;96996.25;5005879;28;20046;-54
2022/12/08 07:41:19;;;;;;;7.70;3.80;;;0.90;96.10;;;4.45;53.07;97005.66;4997379;28;20045;-52
2022/12/08 07:43:52;;;;;;;6.00;3.40;;;0.90;95.40;;;4.50;52.91;96997.34;5004407;28;20066;-55
2022/12/08 07:46:23;;;;;;;8.97;3.97;;;0.90;95.70;;;4.51;52.92;96986.66;5004774;28;20251;-50
2022/12/08 07:48:53;;;;;;;7.03;4.33;;;0.90;95.20;;;4.53;52.62;96992.59;5004621;28;20057;-51
2022/12/08 07:51:21;;;;;;;9.87;5.43;;;0.90;94.70;;;4.57;52.87;96989.72;5004108;28;20255;-53
2022/12/08 07:53:50;;;;;;;11.13;6.10;;;0.90;95.30;;;4.58;52.81;96986.13;5005295;28;20058;-53
2022/12/08 07:56:21;;;;;;;13.63;7.00;;;1.00;95.20;;;4.57;52.93;96990.53;5005547;28;20248;-51
2022/12/08 07:58:49;;;;;;;11.60;6.13;;;1.00;95.10;;;4.58;52.49;96986.13;5004361;28;20050;-54
2022/12/08 08:01:27;;;;;;;8.23;4.77;;;1.00;95.20;;;4.59;53.07;96975.41;5005210;28;20046;-53
2022/12/08 08:04:00;;;;;;;7.40;3.67;;;1.00;95.10;;;4.66;52.89;96979.16;5004364;28;20374;-53
2022/12/08 08:06:28;;;;;;;7.13;3.60;;;1.10;95.80;;;4.70;53.19;96974.44;5005390;28;20052;-51
2022/12/08 08:08:56;;;;;;;6.93;3.90;;;1.10;96.20;;;4.74;52.64;96975.81;5005077;28;20050;-55
2022/12/08 08:11:24;;;;;;;5.57;3.70;;;1.20;94.60;;;4.81;52.35;96981.34;5003830;28;20042;-54
2022/12/08 08:13:52;;;;;;;7.40;3.90;;;1.20;94.80;;;4.85;52.94;96972.19;5005556;28;20043;-51
2022/12/08 08:16:20;;;;;;;5.87;3.37;;;1.30;94.50;;;4.91;52.93;96971.63;5004289;28;20046;-52
2022/12/08 08:18:51;;;;;;;8.97;4.63;;;1.40;93.90;;;4.98;52.57;96967.44;5005210;28;20057;-55
2022/12/08 08:21:20;;;;;;;6.47;3.73;;;1.50;94.20;;;5.05;52.80;96959.78;4996692;28;20244;-54
2022/12/08 08:24:08;;;;;;;4.97;3.30;;;1.50;93.10;;;5.00;52.95;96965.50;5004167;28;20050;-50
2022/12/08 08:26:36;;;;;;;5.67;4.07;;;1.50;91.60;;;5.07;52.59;96965.75;5004775;28;20054;-53
2022/12/08 08:29:04;;;;;;;13.43;3.80;;;1.60;92.90;;;5.11;52.11;96960.03;5004765;28;20076;-54
2022/12/08 08:31:32;;;;;;;9.33;6.90;;;1.60;92.50;;;5.15;53.13;96963.22;5004656;28;20056;-53
2022/12/08 08:34:04;;;;;;;14.07;7.03;;;1.60;92.80;;;5.20;52.67;96960.16;5004937;28;20046;-55
2022/12/08 08:36:33;;;;;;;11.30;6.47;;;1.70;93.90;;;5.27;53.19;96956.81;5004796;28;20042;-52
2022/12/08 08:39:02;;;;;;;8.63;5.07;;;1.80;93.90;;;5.32;52.22;96967.75;5004690;28;20042;-50
2022/12/08 08:41:30;;;;;;;11.47;4.77;;;1.80;93.50;;;5.36;52.62;96970.09;5003402;28;20242;-52
2022/12/08 08:43:57;;;;;;;12.97;6.70;;;1.80;93.00;;;5.38;52.33;96960.22;5003436;28;20046;-54
2022/12/08 08:46:25;;;;;;;10.77;6.67;;;1.80;93.30;;;5.43;53.01;96960.59;5004594;28;20049;-50
2022/12/08 08:48:53;;;;;;;11.13;6.17;;;1.90;93.60;;;5.47;52.81;96968.09;5003565;28;20050;-53
2022/12/08 08:51:22;;;;;;;8.10;4.33;;;1.90;93.50;;;5.53;52.52;96969.34;5004480;28;20048;-54
2022/12/08 08:53:49;;;;;;;11.13;5.47;;;2.00;93.30;;;5.57;52.37;96969.88;5003498;28;20050;-54
2022/12/08 08:56:19;;;;;;;15.67;8.23;;;2.10;93.60;;;5.59;52.22;96968.75;5004455;28;20053;-52
2022/12/08 08:58:48;;;;;;;12.33;6.90;;;2.10;94.00;;;5.61;52.50;96965.97;5004150;28;20054;-52
2022/12/08 09:01:19;;;;;;;12.30;6.47;;;2.20;93.00;;;5.62;52.08;96971.09;5002345;28;20050;-50
2022/12/08 09:03:48;;;;;;;8.87;5.43;;;2.20;92.20;;;5.65;52.83;96968.16;5004122;28;20046;-54
2022/12/08 09:06:17;;;;;;;12.33;5.43;;;2.20;91.90;;;5.72;52.10;96968.41;5003203;28;20384;-51
2022/12/08 09:08:46;;;;;;;9.63;5.67;;;2.20;92.40;;;5.76;52.23;96966.28;5003232;28;20355;-51
2022/12/08 09:11:15;;;;;;;8.93;5.20;;;2.30;91.90;;;5.80;51.65;96959.75;5003914;28;20248;-52
2022/12/08 09:13:43;;;;;;;14.77;7.57;;;2.30;90.90;;;5.80;52.53;96965.88;5004194;28;20042;-55
2022/12/08 09:16:11;;;;;;;13.30;6.53;;;2.30;90.70;;;5.79;52.11;96963.38;5003870;28;20062;-54
2022/12/08 09:18:39;;;;;;;16.73;6.67;;;2.20;90.50;;;5.78;51.60;96949.34;5003089;28;20046;-53
2022/12/08 09:21:12;;;;;;;12.70;6.27;;;2.20;90.70;;;5.76;51.42;96951.28;5001657;28;20058;-52
2022/12/08 09:23:39;;;;;;;9.83;6.07;;;2.10;89.90;;;5.78;51.75;96956.41;5004344;28;20054;-54
2022/12/08 09:26:08;;;;;;;11.47;6.63;;;2.20;90.60;;;5.76;51.75;96946.00;5003845;28;20248;-53
2022/12/08 09:28:36;;;;;;;12.60;6.63;;;2.20;90.20;;;5.75;52.10;96952.25;5002699;28;20046;-53
2022/12/08 09:31:04;;;;;;;15.10;7.20;;;2.20;89.60;;;5.77;51.68;96955.56;5003357;28;20068;-55
2022/12/08 09:33:33;;;;;;;14.47;7.63;;;2.20;89.00;;;5.76;51.36;96953.09;5003942;28;20057;-54
2022/12/08 09:36:03;;;;;;;8.60;4.00;;;2.20;89.60;;;5.74;51.50;96961.19;5003802;28;20050;-54
2022/12/08 09:38:31;;;;;;;7.97;3.57;;;2.20;88.70;;;5.75;51.46;96952.25;5001872;28;20050;-53
2022/12/08 09:41:01;;;;;;;7.20;3.90;;;2.20;89.10;;;5.74;51.42;96950.63;5003744;28;20050;-53
2022/12/08 09:44:15;;;;;;;7.00;3.87;;;2.30;88.60;;;5.70;52.01;96950.06;5002597;28;20053;-55
2022/12/08 09:46:46;;;;;;;7.83;4.00;;;2.30;89.00;;;5.74;51.51;96950.63;4999529;28;20058;-54
2022/12/08 09:49:21;;;;;;;8.93;5.70;;;2.20;89.20;;;5.73;51.78;96944.47;5003179;28;20050;-54
2022/12/08 09:51:48;;;;;;;9.87;4.83;;;2.30;89.50;;;5.73;51.12;96941.00;5002186;28;20060;-54
2022/12/08 09:54:29;;;;;;;10.33;5.33;;;2.30;89.50;;;5.75;51.41;96951.44;5002427;28;20065;-52
2022/12/08 09:57:05;;;;;;;7.00;3.73;;;2.30;89.90;;;5.79;51.51;96934.31;5002269;28;20049;-51
2022/12/08 09:59:34;;;;;;;8.50;4.50;;;2.40;90.00;;;5.79;52.12;96936.94;5002212;28;20049;-53
2022/12/08 10:02:18;;;;;;;7.30;3.90;;;2.30;89.80;;;5.81;51.80;96932.34;5003044;28;20048;-53
2022/12/08 10:04:46;;;;;;;7.17;4.13;;;2.30;90.00;;;5.83;51.56;96930.38;5002352;28;20038;-55
2022/12/08 10:08:01;;;;;;;7.23;4.20;;;2.40;89.90;;;5.81;51.98;96927.06;5002195;28;20042;-54
2022/12/08 10:10:45;;;;;;;7.47;4.70;;;2.50;89.60;;;5.88;51.63;96925.50;4996116;28;20056;-52
2022/12/08 10:13:35;;;;;;;8.10;4.93;;;2.50;90.20;;;5.86;52.04;96917.72;5001927;28;20046;-55
2022/12/08 10:16:33;;;;;;;7.53;3.60;;;2.60;90.20;;;5.90;51.88;96912.97;5001830;28;20050;-52
2022/12/08 10:19:16;;;;;;;8.77;4.67;;;2.60;89.50;;;5.96;52.04;96916.84;4999272;28;20050;-55
2022/12/08 10:21:44;;;;;;;9.67;4.40;;;2.70;89.30;;;5.97;51.42;96914.06;5002194;28;20058;-52
2022/12/08 10:24:40;;;;;;;8.43;4.50;;;2.70;88.40;;;5.90;52.70;96911.16;5001746;28;20046;-51
2022/12/08 10:27:11;;;;;;;6.97;4.40;;;2.70;89.20;;;6.00;51.45;96907.66;5002979;28;20245;-51
2022/12/08 10:29:40;;;;;;;10.53;5.60;;;2.80;88.80;;;6.04;51.47;96909.81;5003093;28;20046;-50
2022/12/08 10:32:34;;;;;;;8.23;4.93;;;2.80;88.40;;;6.04;52.34;96911.66;5001747;28;20041;-55
2022/12/08 10:35:08;;;;;;;7.30;3.83;;;3.00;87.80;;;6.17;51.55;96909.47;4999389;28;20073;-53
2022/12/08 10:37:37;;;;;;;7.43;3.90;;;3.00;88.00;;;6.15;51.23;96903.50;5003268;28;20050;-53
2022/12/08 10:40:17;;;;;;;6.13;3.73;;;3.00;87.80;;;6.17;51.57;96896.25;5001379;28;20050;-56
2022/12/08 10:42:54;;;;;;;7.07;4.97;;;3.00;87.00;;;6.21;51.41;96897.59;5001587;28;20054;-54
2022/12/08 10:45:28;;;;;;;7.13;3.90;;;3.00;87.20;;;6.24;51.49;96897.31;5001491;28;20053;-56
2022/12/08 10:48:13;;;;;;;7.35;3.63;;;3.00;87.30;;;6.21;51.11;96900.25;5001723;28;20046;-53
2022/12/08 10:50:56;;;;;;;8.97;5.87;;;3.00;87.60;;;6.24;51.65;96894.66;5011541;28;20054;-55
2022/12/08 10:53:45;;;;;;;7.80;4.65;;;3.00;87.40;;;6.31;51.57;96890.41;4994850;28;20050;-54
2022/12/08 10:56:16;;;;;;;8.50;4.40;;;3.10;87.70;;;6.39;50.94;96887.00;5002539;28;20046;-55
2022/12/08 10:58:46;;;;;;;6.27;4.50;;;3.10;86.30;;;6.44;51.47;96886.56;5001369;28;20050;-54